Bailing-Miao, China
Current Conditions -  °F | °C
As of 2:00 PM on Sunday 23 Nov 2014 (Local Time) from ZBHH Reporting Station
Clear Clear  
Wind Chill: 36°   Ceiling: Unl
Heat Index: 43°   Visibility: 6mi
Dew Point:   Wind: 13mph
Humidity: 25%   Direction: 310°NW
Pressure: 30.18"   Gusts: NA
Location:  41.7°N, 110.43°E
Report Text: ZBHH 230600Z 31006MPS CAVOK 06/M13 Q1022 NOSIG
Loading
Personal Weather Stations






























Interactive Weather Map New forecast layout! Learn more

10-Day Weather Forecast

Advertisements
Track Severe Weather on mobile